sensor_id;sensor_type;location;lat;lon;timestamp;P1;durP1;ratioP1;P2;durP2;ratioP2
11911;SDS011;6016;41.928;25.556;2023-03-16T00:00:17;19.30;;;10.43;;
11911;SDS011;6016;41.928;25.556;2023-03-16T00:02:45;19.42;;;11.07;;
11911;SDS011;6016;41.928;25.556;2023-03-16T00:05:12;22.17;;;10.10;;
11911;SDS011;6016;41.928;25.556;2023-03-16T00:07:41;24.83;;;10.18;;
11911;SDS011;6016;41.928;25.556;2023-03-16T00:10:08;18.65;;;9.88;;
11911;SDS011;6016;41.928;25.556;2023-03-16T00:12:37;21.17;;;10.02;;
11911;SDS011;6016;41.928;25.556;2023-03-16T00:15:04;19.98;;;9.73;;
11911;SDS011;6016;41.928;25.556;2023-03-16T00:17:33;24.52;;;10.07;;
11911;SDS011;6016;41.928;25.556;2023-03-16T00:19:59;20.98;;;10.63;;
11911;SDS011;6016;41.928;25.556;2023-03-16T00:22:30;19.58;;;10.50;;
11911;SDS011;6016;41.928;25.556;2023-03-16T00:24:59;20.67;;;11.02;;
11911;SDS011;6016;41.928;25.556;2023-03-16T00:27:25;24.75;;;10.93;;
11911;SDS011;6016;41.928;25.556;2023-03-16T00:29:53;18.02;;;10.20;;
11911;SDS011;6016;41.928;25.556;2023-03-16T00:32:21;27.58;;;13.80;;
11911;SDS011;6016;41.928;25.556;2023-03-16T00:34:49;22.83;;;12.25;;
11911;SDS011;6016;41.928;25.556;2023-03-16T00:37:17;22.30;;;11.23;;
11911;SDS011;6016;41.928;25.556;2023-03-16T00:39:47;25.17;;;11.77;;
11911;SDS011;6016;41.928;25.556;2023-03-16T00:42:18;41.08;;;17.73;;
11911;SDS011;6016;41.928;25.556;2023-03-16T00:44:45;22.88;;;11.75;;
11911;SDS011;6016;41.928;25.556;2023-03-16T00:47:12;31.73;;;13.60;;
11911;SDS011;6016;41.928;25.556;2023-03-16T00:49:40;25.50;;;11.75;;
11911;SDS011;6016;41.928;25.556;2023-03-16T00:52:08;48.28;;;23.00;;
11911;SDS011;6016;41.928;25.556;2023-03-16T00:54:38;28.30;;;13.20;;
11911;SDS011;6016;41.928;25.556;2023-03-16T00:57:07;38.97;;;18.45;;
11911;SDS011;6016;41.928;25.556;2023-03-16T00:59:37;28.75;;;13.07;;
11911;SDS011;6016;41.928;25.556;2023-03-16T01:02:05;27.52;;;12.68;;
11911;SDS011;6016;41.928;25.556;2023-03-16T01:04:32;37.28;;;16.73;;
11911;SDS011;6016;41.928;25.556;2023-03-16T01:07:00;49.00;;;20.75;;
11911;SDS011;6016;41.928;25.556;2023-03-16T01:09:27;52.85;;;23.38;;
11911;SDS011;6016;41.928;25.556;2023-03-16T01:11:53;24.17;;;12.23;;
11911;SDS011;6016;41.928;25.556;2023-03-16T01:14:20;47.80;;;21.98;;
11911;SDS011;6016;41.928;25.556;2023-03-16T01:16:49;36.03;;;16.42;;
11911;SDS011;6016;41.928;25.556;2023-03-16T01:19:16;28.75;;;14.48;;
11911;SDS011;6016;41.928;25.556;2023-03-16T01:21:43;34.53;;;18.67;;
11911;SDS011;6016;41.928;25.556;2023-03-16T01:24:10;22.33;;;13.10;;
11911;SDS011;6016;41.928;25.556;2023-03-16T01:26:37;26.95;;;13.38;;
11911;SDS011;6016;41.928;25.556;2023-03-16T01:29:03;30.40;;;15.15;;
11911;SDS011;6016;41.928;25.556;2023-03-16T01:31:30;109.47;;;41.05;;
11911;SDS011;6016;41.928;25.556;2023-03-16T01:33:58;95.63;;;37.83;;
11911;SDS011;6016;41.928;25.556;2023-03-16T01:36:28;59.20;;;24.13;;
11911;SDS011;6016;41.928;25.556;2023-03-16T01:38:56;39.08;;;16.00;;
11911;SDS011;6016;41.928;25.556;2023-03-16T01:41:23;35.17;;;16.30;;
11911;SDS011;6016;41.928;25.556;2023-03-16T01:43:51;29.27;;;13.60;;
11911;SDS011;6016;41.928;25.556;2023-03-16T01:46:23;33.08;;;15.88;;
11911;SDS011;6016;41.928;25.556;2023-03-16T01:48:54;40.72;;;18.55;;
11911;SDS011;6016;41.928;25.556;2023-03-16T01:51:28;26.38;;;13.05;;
11911;SDS011;6016;41.928;25.556;2023-03-16T01:54:02;31.48;;;14.13;;
11911;SDS011;6016;41.928;25.556;2023-03-16T01:56:34;30.25;;;13.77;;
11911;SDS011;6016;41.928;25.556;2023-03-16T01:59:05;25.33;;;12.60;;
11911;SDS011;6016;41.928;25.556;2023-03-16T02:01:36;32.30;;;14.82;;
11911;SDS011;6016;41.928;25.556;2023-03-16T02:04:05;26.23;;;13.23;;
11911;SDS011;6016;41.928;25.556;2023-03-16T02:06:44;24.73;;;11.88;;
11911;SDS011;6016;41.928;25.556;2023-03-16T02:09:12;24.90;;;12.30;;
11911;SDS011;6016;41.928;25.556;2023-03-16T02:11:39;27.15;;;12.02;;
11911;SDS011;6016;41.928;25.556;2023-03-16T02:14:07;24.48;;;12.23;;
11911;SDS011;6016;41.928;25.556;2023-03-16T02:16:36;23.15;;;11.63;;
11911;SDS011;6016;41.928;25.556;2023-03-16T02:19:04;25.55;;;12.52;;
11911;SDS011;6016;41.928;25.556;2023-03-16T02:21:38;24.17;;;12.32;;
11911;SDS011;6016;41.928;25.556;2023-03-16T02:24:13;23.75;;;11.40;;
11911;SDS011;6016;41.928;25.556;2023-03-16T02:26:41;24.38;;;11.15;;
11911;SDS011;6016;41.928;25.556;2023-03-16T02:29:19;25.13;;;12.82;;
11911;SDS011;6016;41.928;25.556;2023-03-16T02:31:56;19.48;;;10.77;;
11911;SDS011;6016;41.928;25.556;2023-03-16T02:34:26;20.95;;;11.38;;
11911;SDS011;6016;41.928;25.556;2023-03-16T02:36:54;25.95;;;12.23;;
11911;SDS011;6016;41.928;25.556;2023-03-16T02:39:23;25.98;;;11.98;;
11911;SDS011;6016;41.928;25.556;2023-03-16T02:41:50;22.02;;;12.50;;
11911;SDS011;6016;41.928;25.556;2023-03-16T02:44:18;20.10;;;12.05;;
11911;SDS011;6016;41.928;25.556;2023-03-16T02:46:50;21.98;;;11.48;;
11911;SDS011;6016;41.928;25.556;2023-03-16T02:49:21;23.63;;;12.05;;
11911;SDS011;6016;41.928;25.556;2023-03-16T02:51:52;27.25;;;12.02;;
11911;SDS011;6016;41.928;25.556;2023-03-16T02:54:21;21.85;;;11.32;;
11911;SDS011;6016;41.928;25.556;2023-03-16T02:56:48;22.45;;;11.10;;
11911;SDS011;6016;41.928;25.556;2023-03-16T02:59:15;22.65;;;11.63;;
11911;SDS011;6016;41.928;25.556;2023-03-16T03:01:43;26.35;;;12.02;;
11911;SDS011;6016;41.928;25.556;2023-03-16T03:04:09;21.83;;;11.55;;
11911;SDS011;6016;41.928;25.556;2023-03-16T03:06:38;23.38;;;11.75;;
11911;SDS011;6016;41.928;25.556;2023-03-16T03:09:06;21.10;;;10.70;;
11911;SDS011;6016;41.928;25.556;2023-03-16T03:11:35;20.88;;;10.98;;
11911;SDS011;6016;41.928;25.556;2023-03-16T03:14:02;22.15;;;10.68;;
11911;SDS011;6016;41.928;25.556;2023-03-16T03:16:29;20.10;;;10.90;;
11911;SDS011;6016;41.928;25.556;2023-03-16T03:18:56;19.75;;;11.02;;
11911;SDS011;6016;41.928;25.556;2023-03-16T03:21:23;22.98;;;10.82;;
11911;SDS011;6016;41.928;25.556;2023-03-16T03:23:52;22.88;;;11.35;;
11911;SDS011;6016;41.928;25.556;2023-03-16T03:26:19;19.92;;;10.60;;
11911;SDS011;6016;41.928;25.556;2023-03-16T03:28:46;21.38;;;11.77;;
11911;SDS011;6016;41.928;25.556;2023-03-16T03:31:13;20.52;;;10.70;;
11911;SDS011;6016;41.928;25.556;2023-03-16T03:33:41;20.48;;;10.85;;
11911;SDS011;6016;41.928;25.556;2023-03-16T03:36:08;18.63;;;10.48;;
11911;SDS011;6016;41.928;25.556;2023-03-16T03:38:36;20.42;;;10.75;;
11911;SDS011;6016;41.928;25.556;2023-03-16T03:41:05;21.65;;;10.32;;
11911;SDS011;6016;41.928;25.556;2023-03-16T03:43:33;19.40;;;10.70;;
11911;SDS011;6016;41.928;25.556;2023-03-16T03:46:00;17.65;;;10.23;;
11911;SDS011;6016;41.928;25.556;2023-03-16T03:48:28;18.65;;;10.20;;
11911;SDS011;6016;41.928;25.556;2023-03-16T03:50:55;18.38;;;9.52;;
11911;SDS011;6016;41.928;25.556;2023-03-16T03:53:22;20.25;;;9.75;;
11911;SDS011;6016;41.928;25.556;2023-03-16T03:55:49;24.70;;;10.70;;
11911;SDS011;6016;41.928;25.556;2023-03-16T03:58:17;18.90;;;10.02;;
11911;SDS011;6016;41.928;25.556;2023-03-16T04:00:44;17.67;;;9.30;;
11911;SDS011;6016;41.928;25.556;2023-03-16T04:03:11;19.02;;;9.45;;
11911;SDS011;6016;41.928;25.556;2023-03-16T04:05:38;14.85;;;8.88;;
11911;SDS011;6016;41.928;25.556;2023-03-16T04:08:04;16.38;;;8.85;;
11911;SDS011;6016;41.928;25.556;2023-03-16T04:10:31;18.70;;;8.80;;
11911;SDS011;6016;41.928;25.556;2023-03-16T04:12:58;20.23;;;8.45;;
11911;SDS011;6016;41.928;25.556;2023-03-16T04:15:26;16.38;;;9.05;;
11911;SDS011;6016;41.928;25.556;2023-03-16T04:17:53;16.38;;;9.10;;
11911;SDS011;6016;41.928;25.556;2023-03-16T04:20:20;16.83;;;8.00;;
11911;SDS011;6016;41.928;25.556;2023-03-16T04:22:48;21.55;;;9.02;;
11911;SDS011;6016;41.928;25.556;2023-03-16T04:25:22;16.75;;;9.02;;
11911;SDS011;6016;41.928;25.556;2023-03-16T04:27:51;18.55;;;8.80;;
11911;SDS011;6016;41.928;25.556;2023-03-16T04:30:18;14.65;;;7.93;;
11911;SDS011;6016;41.928;25.556;2023-03-16T04:32:46;16.75;;;7.85;;
11911;SDS011;6016;41.928;25.556;2023-03-16T04:35:13;12.50;;;7.53;;
11911;SDS011;6016;41.928;25.556;2023-03-16T04:37:41;16.60;;;8.45;;
11911;SDS011;6016;41.928;25.556;2023-03-16T04:40:08;14.68;;;7.72;;
11911;SDS011;6016;41.928;25.556;2023-03-16T04:42:41;14.95;;;7.97;;
11911;SDS011;6016;41.928;25.556;2023-03-16T04:45:08;13.73;;;7.40;;
11911;SDS011;6016;41.928;25.556;2023-03-16T04:47:36;12.65;;;6.70;;
11911;SDS011;6016;41.928;25.556;2023-03-16T04:50:04;11.13;;;6.50;;
11911;SDS011;6016;41.928;25.556;2023-03-16T04:52:32;10.65;;;6.07;;
11911;SDS011;6016;41.928;25.556;2023-03-16T04:54:58;15.13;;;6.57;;
11911;SDS011;6016;41.928;25.556;2023-03-16T04:57:25;11.40;;;6.50;;
11911;SDS011;6016;41.928;25.556;2023-03-16T04:59:52;13.73;;;6.25;;
11911;SDS011;6016;41.928;25.556;2023-03-16T05:02:19;10.57;;;5.95;;
11911;SDS011;6016;41.928;25.556;2023-03-16T05:04:46;8.90;;;5.60;;
11911;SDS011;6016;41.928;25.556;2023-03-16T05:07:14;12.23;;;6.20;;
11911;SDS011;6016;41.928;25.556;2023-03-16T05:09:41;11.30;;;5.78;;
11911;SDS011;6016;41.928;25.556;2023-03-16T05:12:09;9.98;;;5.22;;
11911;SDS011;6016;41.928;25.556;2023-03-16T05:14:36;10.15;;;5.18;;
11911;SDS011;6016;41.928;25.556;2023-03-16T05:17:03;11.75;;;4.70;;
11911;SDS011;6016;41.928;25.556;2023-03-16T05:19:30;9.65;;;4.25;;
11911;SDS011;6016;41.928;25.556;2023-03-16T05:21:57;8.05;;;4.60;;
11911;SDS011;6016;41.928;25.556;2023-03-16T05:24:26;8.32;;;4.30;;
11911;SDS011;6016;41.928;25.556;2023-03-16T05:26:52;22.75;;;11.52;;
11911;SDS011;6016;41.928;25.556;2023-03-16T05:29:19;13.35;;;7.15;;
11911;SDS011;6016;41.928;25.556;2023-03-16T05:31:46;12.38;;;5.95;;
11911;SDS011;6016;41.928;25.556;2023-03-16T05:34:13;8.02;;;4.43;;
11911;SDS011;6016;41.928;25.556;2023-03-16T05:36:40;12.00;;;7.13;;
11911;SDS011;6016;41.928;25.556;2023-03-16T05:39:09;9.02;;;4.70;;
11911;SDS011;6016;41.928;25.556;2023-03-16T05:41:37;7.72;;;4.35;;
11911;SDS011;6016;41.928;25.556;2023-03-16T05:44:05;19.65;;;7.25;;
11911;SDS011;6016;41.928;25.556;2023-03-16T05:46:33;7.22;;;4.45;;
11911;SDS011;6016;41.928;25.556;2023-03-16T05:48:59;7.68;;;3.97;;
11911;SDS011;6016;41.928;25.556;2023-03-16T05:51:26;6.80;;;3.50;;
11911;SDS011;6016;41.928;25.556;2023-03-16T05:53:53;8.25;;;4.15;;
11911;SDS011;6016;41.928;25.556;2023-03-16T05:56:22;6.00;;;3.70;;
11911;SDS011;6016;41.928;25.556;2023-03-16T05:58:50;8.15;;;4.00;;
11911;SDS011;6016;41.928;25.556;2023-03-16T06:01:18;7.90;;;4.22;;
11911;SDS011;6016;41.928;25.556;2023-03-16T06:03:45;23.05;;;12.98;;
11911;SDS011;6016;41.928;25.556;2023-03-16T06:06:13;10.50;;;6.15;;
11911;SDS011;6016;41.928;25.556;2023-03-16T06:08:41;9.73;;;5.07;;
11911;SDS011;6016;41.928;25.556;2023-03-16T06:11:08;13.25;;;7.85;;
11911;SDS011;6016;41.928;25.556;2023-03-16T06:13:35;8.43;;;4.15;;
11911;SDS011;6016;41.928;25.556;2023-03-16T06:16:04;7.72;;;3.92;;
11911;SDS011;6016;41.928;25.556;2023-03-16T06:18:31;9.25;;;4.47;;
11911;SDS011;6016;41.928;25.556;2023-03-16T06:20:58;6.13;;;3.60;;
11911;SDS011;6016;41.928;25.556;2023-03-16T06:23:27;11.70;;;4.60;;
11911;SDS011;6016;41.928;25.556;2023-03-16T06:25:53;8.00;;;4.65;;
11911;SDS011;6016;41.928;25.556;2023-03-16T06:28:21;10.82;;;5.22;;
11911;SDS011;6016;41.928;25.556;2023-03-16T06:30:48;9.73;;;4.50;;
11911;SDS011;6016;41.928;25.556;2023-03-16T06:33:20;8.30;;;4.43;;
11911;SDS011;6016;41.928;25.556;2023-03-16T06:35:46;12.85;;;5.10;;
11911;SDS011;6016;41.928;25.556;2023-03-16T06:38:14;21.10;;;6.72;;
11911;SDS011;6016;41.928;25.556;2023-03-16T06:40:40;58.50;;;24.88;;
11911;SDS011;6016;41.928;25.556;2023-03-16T06:43:07;9.70;;;4.03;;
11911;SDS011;6016;41.928;25.556;2023-03-16T06:45:34;7.25;;;4.00;;
11911;SDS011;6016;41.928;25.556;2023-03-16T06:48:01;5.78;;;3.50;;
11911;SDS011;6016;41.928;25.556;2023-03-16T06:50:29;6.10;;;3.42;;
11911;SDS011;6016;41.928;25.556;2023-03-16T06:52:56;8.48;;;4.20;;
11911;SDS011;6016;41.928;25.556;2023-03-16T06:55:23;14.45;;;4.80;;
11911;SDS011;6016;41.928;25.556;2023-03-16T06:57:50;12.95;;;5.40;;
11911;SDS011;6016;41.928;25.556;2023-03-16T07:00:17;17.65;;;7.95;;
11911;SDS011;6016;41.928;25.556;2023-03-16T07:02:44;7.07;;;4.47;;
11911;SDS011;6016;41.928;25.556;2023-03-16T07:05:11;6.55;;;4.57;;
11911;SDS011;6016;41.928;25.556;2023-03-16T07:07:39;6.35;;;4.35;;
11911;SDS011;6016;41.928;25.556;2023-03-16T07:10:08;5.95;;;2.85;;
11911;SDS011;6016;41.928;25.556;2023-03-16T07:12:36;8.38;;;3.30;;
11911;SDS011;6016;41.928;25.556;2023-03-16T07:15:03;7.70;;;3.03;;
11911;SDS011;6016;41.928;25.556;2023-03-16T07:17:31;6.60;;;3.50;;
11911;SDS011;6016;41.928;25.556;2023-03-16T07:19:58;7.50;;;3.88;;
11911;SDS011;6016;41.928;25.556;2023-03-16T07:22:24;6.35;;;3.40;;
11911;SDS011;6016;41.928;25.556;2023-03-16T07:24:53;4.22;;;2.58;;
11911;SDS011;6016;41.928;25.556;2023-03-16T07:27:21;6.95;;;3.42;;
11911;SDS011;6016;41.928;25.556;2023-03-16T07:29:48;11.05;;;4.63;;
11911;SDS011;6016;41.928;25.556;2023-03-16T07:32:16;7.72;;;3.33;;
11911;SDS011;6016;41.928;25.556;2023-03-16T07:34:43;7.88;;;3.60;;
11911;SDS011;6016;41.928;25.556;2023-03-16T07:37:10;5.50;;;3.13;;
11911;SDS011;6016;41.928;25.556;2023-03-16T07:39:37;4.10;;;2.85;;
11911;SDS011;6016;41.928;25.556;2023-03-16T07:42:06;6.70;;;4.00;;
11911;SDS011;6016;41.928;25.556;2023-03-16T07:44:33;6.95;;;4.28;;
11911;SDS011;6016;41.928;25.556;2023-03-16T07:47:00;5.47;;;2.92;;
11911;SDS011;6016;41.928;25.556;2023-03-16T07:49:26;6.90;;;3.15;;
11911;SDS011;6016;41.928;25.556;2023-03-16T07:51:53;6.43;;;3.80;;
11911;SDS011;6016;41.928;25.556;2023-03-16T07:54:20;4.75;;;2.78;;
11911;SDS011;6016;41.928;25.556;2023-03-16T07:56:48;8.00;;;2.80;;
11911;SDS011;6016;41.928;25.556;2023-03-16T07:59:16;6.35;;;4.10;;
11911;SDS011;6016;41.928;25.556;2023-03-16T08:01:45;10.50;;;4.85;;
11911;SDS011;6016;41.928;25.556;2023-03-16T08:04:12;10.15;;;5.90;;
11911;SDS011;6016;41.928;25.556;2023-03-16T08:06:38;6.93;;;4.90;;
11911;SDS011;6016;41.928;25.556;2023-03-16T08:09:06;13.52;;;4.68;;
11911;SDS011;6016;41.928;25.556;2023-03-16T08:11:33;10.80;;;4.63;;
11911;SDS011;6016;41.928;25.556;2023-03-16T08:14:00;5.70;;;2.65;;
11911;SDS011;6016;41.928;25.556;2023-03-16T08:16:28;6.05;;;2.97;;
11911;SDS011;6016;41.928;25.556;2023-03-16T08:18:55;5.07;;;2.97;;
11911;SDS011;6016;41.928;25.556;2023-03-16T08:21:23;6.78;;;3.10;;
11911;SDS011;6016;41.928;25.556;2023-03-16T08:23:50;5.47;;;3.00;;
11911;SDS011;6016;41.928;25.556;2023-03-16T08:26:17;3.33;;;2.30;;
11911;SDS011;6016;41.928;25.556;2023-03-16T08:28:45;2.90;;;2.08;;
11911;SDS011;6016;41.928;25.556;2023-03-16T08:31:12;7.22;;;2.33;;
11911;SDS011;6016;41.928;25.556;2023-03-16T08:33:41;7.07;;;2.10;;
11911;SDS011;6016;41.928;25.556;2023-03-16T08:36:10;3.90;;;1.98;;
11911;SDS011;6016;41.928;25.556;2023-03-16T08:38:39;5.22;;;2.78;;
11911;SDS011;6016;41.928;25.556;2023-03-16T08:41:07;7.45;;;4.10;;
11911;SDS011;6016;41.928;25.556;2023-03-16T08:43:34;6.38;;;2.22;;
11911;SDS011;6016;41.928;25.556;2023-03-16T08:46:01;19.75;;;8.57;;
11911;SDS011;6016;41.928;25.556;2023-03-16T08:48:30;6.68;;;2.30;;
11911;SDS011;6016;41.928;25.556;2023-03-16T08:51:01;5.25;;;2.78;;
11911;SDS011;6016;41.928;25.556;2023-03-16T08:53:30;4.15;;;2.40;;
11911;SDS011;6016;41.928;25.556;2023-03-16T08:56:00;6.88;;;1.90;;
11911;SDS011;6016;41.928;25.556;2023-03-16T08:58:28;8.85;;;4.05;;
11911;SDS011;6016;41.928;25.556;2023-03-16T09:00:56;7.60;;;3.60;;
11911;SDS011;6016;41.928;25.556;2023-03-16T09:03:23;6.05;;;2.33;;
11911;SDS011;6016;41.928;25.556;2023-03-16T09:05:51;8.40;;;4.20;;
11911;SDS011;6016;41.928;25.556;2023-03-16T09:08:19;9.00;;;2.70;;
11911;SDS011;6016;41.928;25.556;2023-03-16T09:10:46;5.40;;;3.45;;
11911;SDS011;6016;41.928;25.556;2023-03-16T09:13:12;15.18;;;5.07;;
11911;SDS011;6016;41.928;25.556;2023-03-16T09:15:40;18.95;;;10.00;;
11911;SDS011;6016;41.928;25.556;2023-03-16T09:18:07;19.00;;;8.18;;
11911;SDS011;6016;41.928;25.556;2023-03-16T09:20:34;22.70;;;10.52;;
11911;SDS011;6016;41.928;25.556;2023-03-16T09:23:01;7.55;;;4.03;;
11911;SDS011;6016;41.928;25.556;2023-03-16T09:25:30;10.07;;;4.90;;
11911;SDS011;6016;41.928;25.556;2023-03-16T09:27:57;6.78;;;3.72;;
11911;SDS011;6016;41.928;25.556;2023-03-16T09:30:25;7.70;;;4.28;;
11911;SDS011;6016;41.928;25.556;2023-03-16T09:32:52;5.40;;;3.13;;
11911;SDS011;6016;41.928;25.556;2023-03-16T09:35:19;4.35;;;2.30;;
11911;SDS011;6016;41.928;25.556;2023-03-16T09:37:45;5.40;;;3.90;;
11911;SDS011;6016;41.928;25.556;2023-03-16T09:40:17;8.98;;;4.70;;
11911;SDS011;6016;41.928;25.556;2023-03-16T09:42:52;20.05;;;10.65;;
11911;SDS011;6016;41.928;25.556;2023-03-16T09:45:31;18.50;;;10.25;;
11911;SDS011;6016;41.928;25.556;2023-03-16T09:48:04;16.40;;;10.13;;
11911;SDS011;6016;41.928;25.556;2023-03-16T09:50:35;15.38;;;7.63;;
11911;SDS011;6016;41.928;25.556;2023-03-16T09:53:05;6.65;;;3.30;;
11911;SDS011;6016;41.928;25.556;2023-03-16T09:55:39;15.27;;;9.23;;
11911;SDS011;6016;41.928;25.556;2023-03-16T09:58:14;3.92;;;3.08;;
11911;SDS011;6016;41.928;25.556;2023-03-16T10:00:46;5.00;;;3.45;;
11911;SDS011;6016;41.928;25.556;2023-03-16T10:03:26;8.98;;;4.40;;
11911;SDS011;6016;41.928;25.556;2023-03-16T10:06:03;9.00;;;6.15;;
11911;SDS011;6016;41.928;25.556;2023-03-16T10:08:36;9.55;;;5.68;;
11911;SDS011;6016;41.928;25.556;2023-03-16T10:11:17;7.65;;;4.82;;
11911;SDS011;6016;41.928;25.556;2023-03-16T10:13:54;22.88;;;14.65;;
11911;SDS011;6016;41.928;25.556;2023-03-16T10:16:26;7.18;;;4.50;;
11911;SDS011;6016;41.928;25.556;2023-03-16T10:19:01;11.50;;;6.13;;
11911;SDS011;6016;41.928;25.556;2023-03-16T10:21:35;7.13;;;3.75;;
11911;SDS011;6016;41.928;25.556;2023-03-16T10:24:06;6.40;;;3.60;;
11911;SDS011;6016;41.928;25.556;2023-03-16T10:26:41;8.90;;;4.30;;
11911;SDS011;6016;41.928;25.556;2023-03-16T10:29:14;10.90;;;4.97;;
11911;SDS011;6016;41.928;25.556;2023-03-16T10:31:40;6.55;;;4.47;;
11911;SDS011;6016;41.928;25.556;2023-03-16T10:34:08;6.45;;;4.50;;
11911;SDS011;6016;41.928;25.556;2023-03-16T10:36:37;5.85;;;3.78;;
11911;SDS011;6016;41.928;25.556;2023-03-16T10:39:08;7.35;;;3.33;;
11911;SDS011;6016;41.928;25.556;2023-03-16T10:41:37;5.47;;;3.10;;
11911;SDS011;6016;41.928;25.556;2023-03-16T10:44:08;8.57;;;2.78;;
11911;SDS011;6016;41.928;25.556;2023-03-16T10:46:39;5.03;;;3.88;;
11911;SDS011;6016;41.928;25.556;2023-03-16T10:49:18;7.13;;;2.90;;
11911;SDS011;6016;41.928;25.556;2023-03-16T10:51:47;4.93;;;2.92;;
11911;SDS011;6016;41.928;25.556;2023-03-16T10:54:16;4.28;;;2.60;;
11911;SDS011;6016;41.928;25.556;2023-03-16T10:56:49;4.68;;;2.33;;
11911;SDS011;6016;41.928;25.556;2023-03-16T10:59:23;4.32;;;2.53;;
11911;SDS011;6016;41.928;25.556;2023-03-16T11:01:54;4.88;;;2.58;;
11911;SDS011;6016;41.928;25.556;2023-03-16T11:04:22;6.95;;;4.40;;
11911;SDS011;6016;41.928;25.556;2023-03-16T11:06:51;5.05;;;3.03;;
11911;SDS011;6016;41.928;25.556;2023-03-16T11:09:24;5.53;;;3.17;;
11911;SDS011;6016;41.928;25.556;2023-03-16T11:11:57;4.53;;;3.05;;
11911;SDS011;6016;41.928;25.556;2023-03-16T11:14:25;7.97;;;3.30;;
11911;SDS011;6016;41.928;25.556;2023-03-16T11:16:58;4.53;;;2.60;;
11911;SDS011;6016;41.928;25.556;2023-03-16T11:19:30;6.45;;;3.20;;
11911;SDS011;6016;41.928;25.556;2023-03-16T11:22:01;5.38;;;3.13;;
11911;SDS011;6016;41.928;25.556;2023-03-16T11:24:32;3.72;;;2.30;;
11911;SDS011;6016;41.928;25.556;2023-03-16T11:27:09;4.22;;;2.78;;
11911;SDS011;6016;41.928;25.556;2023-03-16T11:29:47;4.15;;;2.35;;
11911;SDS011;6016;41.928;25.556;2023-03-16T11:32:33;7.28;;;4.22;;
11911;SDS011;6016;41.928;25.556;2023-03-16T11:35:05;43.80;;;23.00;;
11911;SDS011;6016;41.928;25.556;2023-03-16T11:37:41;9.10;;;4.25;;
11911;SDS011;6016;41.928;25.556;2023-03-16T11:43:17;5.70;;;2.50;;
11911;SDS011;6016;41.928;25.556;2023-03-16T11:45:59;4.20;;;2.78;;
11911;SDS011;6016;41.928;25.556;2023-03-16T11:48:37;3.67;;;2.40;;
11911;SDS011;6016;41.928;25.556;2023-03-16T11:51:09;4.97;;;2.50;;
11911;SDS011;6016;41.928;25.556;2023-03-16T11:56:27;5.32;;;3.22;;
11911;SDS011;6016;41.928;25.556;2023-03-16T12:02:06;4.38;;;2.63;;
11911;SDS011;6016;41.928;25.556;2023-03-16T12:04:55;4.95;;;2.42;;
11911;SDS011;6016;41.928;25.556;2023-03-16T12:07:39;5.15;;;2.70;;
11911;SDS011;6016;41.928;25.556;2023-03-16T12:10:21;6.53;;;3.20;;
11911;SDS011;6016;41.928;25.556;2023-03-16T12:12:53;5.28;;;2.78;;
11911;SDS011;6016;41.928;25.556;2023-03-16T12:15:34;5.35;;;3.38;;
11911;SDS011;6016;41.928;25.556;2023-03-16T12:18:09;4.10;;;2.72;;
11911;SDS011;6016;41.928;25.556;2023-03-16T12:20:44;5.93;;;3.33;;
11911;SDS011;6016;41.928;25.556;2023-03-16T12:23:17;7.68;;;3.30;;
11911;SDS011;6016;41.928;25.556;2023-03-16T12:25:47;9.90;;;4.72;;
11911;SDS011;6016;41.928;25.556;2023-03-16T12:28:19;7.57;;;3.95;;
11911;SDS011;6016;41.928;25.556;2023-03-16T12:30:51;8.43;;;5.20;;
11911;SDS011;6016;41.928;25.556;2023-03-16T12:33:25;9.85;;;5.85;;
11911;SDS011;6016;41.928;25.556;2023-03-16T12:36:06;15.32;;;8.70;;
11911;SDS011;6016;41.928;25.556;2023-03-16T12:38:48;14.60;;;7.35;;
11911;SDS011;6016;41.928;25.556;2023-03-16T12:41:22;13.30;;;6.30;;
11911;SDS011;6016;41.928;25.556;2023-03-16T12:44:02;10.30;;;4.43;;
11911;SDS011;6016;41.928;25.556;2023-03-16T12:46:38;11.68;;;5.47;;
11911;SDS011;6016;41.928;25.556;2023-03-16T12:49:15;9.75;;;5.03;;
11911;SDS011;6016;41.928;25.556;2023-03-16T12:51:44;13.75;;;6.35;;
11911;SDS011;6016;41.928;25.556;2023-03-16T12:54:19;12.75;;;6.10;;
11911;SDS011;6016;41.928;25.556;2023-03-16T12:56:48;14.02;;;7.43;;
11911;SDS011;6016;41.928;25.556;2023-03-16T12:59:18;10.07;;;5.00;;
11911;SDS011;6016;41.928;25.556;2023-03-16T13:01:47;22.58;;;9.77;;
11911;SDS011;6016;41.928;25.556;2023-03-16T13:04:17;23.85;;;10.75;;
11911;SDS011;6016;41.928;25.556;2023-03-16T13:06:49;14.05;;;6.35;;
11911;SDS011;6016;41.928;25.556;2023-03-16T13:09:27;25.48;;;11.27;;
11911;SDS011;6016;41.928;25.556;2023-03-16T13:11:56;13.88;;;7.18;;
11911;SDS011;6016;41.928;25.556;2023-03-16T13:14:32;13.80;;;6.30;;
11911;SDS011;6016;41.928;25.556;2023-03-16T13:17:04;24.52;;;10.70;;
11911;SDS011;6016;41.928;25.556;2023-03-16T13:19:32;12.25;;;5.80;;
11911;SDS011;6016;41.928;25.556;2023-03-16T13:24:54;12.38;;;5.90;;
11911;SDS011;6016;41.928;25.556;2023-03-16T13:27:26;11.93;;;5.80;;
11911;SDS011;6016;41.928;25.556;2023-03-16T13:29:56;10.60;;;6.25;;
11911;SDS011;6016;41.928;25.556;2023-03-16T13:32:24;10.77;;;5.35;;
11911;SDS011;6016;41.928;25.556;2023-03-16T13:34:56;10.25;;;5.22;;
11911;SDS011;6016;41.928;25.556;2023-03-16T13:37:26;8.02;;;4.03;;
11911;SDS011;6016;41.928;25.556;2023-03-16T13:39:54;23.45;;;4.88;;
11911;SDS011;6016;41.928;25.556;2023-03-16T13:42:24;7.78;;;4.55;;
11911;SDS011;6016;41.928;25.556;2023-03-16T13:44:54;11.57;;;6.50;;
11911;SDS011;6016;41.928;25.556;2023-03-16T13:47:24;9.75;;;5.82;;
11911;SDS011;6016;41.928;25.556;2023-03-16T13:49:54;12.82;;;6.22;;
11911;SDS011;6016;41.928;25.556;2023-03-16T13:52:24;12.88;;;5.50;;
11911;SDS011;6016;41.928;25.556;2023-03-16T13:54:54;15.98;;;8.10;;
11911;SDS011;6016;41.928;25.556;2023-03-16T13:57:23;10.95;;;5.28;;
11911;SDS011;6016;41.928;25.556;2023-03-16T13:59:59;10.43;;;5.03;;
11911;SDS011;6016;41.928;25.556;2023-03-16T14:02:29;12.85;;;5.28;;
11911;SDS011;6016;41.928;25.556;2023-03-16T14:04:56;100.95;;;33.47;;
11911;SDS011;6016;41.928;25.556;2023-03-16T14:07:23;34.97;;;14.73;;
11911;SDS011;6016;41.928;25.556;2023-03-16T14:09:53;10.00;;;5.43;;
11911;SDS011;6016;41.928;25.556;2023-03-16T14:12:23;11.73;;;7.03;;
11911;SDS011;6016;41.928;25.556;2023-03-16T14:14:53;49.38;;;22.88;;
11911;SDS011;6016;41.928;25.556;2023-03-16T14:17:20;33.10;;;15.32;;
11911;SDS011;6016;41.928;25.556;2023-03-16T14:19:49;36.05;;;18.00;;
11911;SDS011;6016;41.928;25.556;2023-03-16T14:22:18;47.13;;;22.10;;
11911;SDS011;6016;41.928;25.556;2023-03-16T14:24:51;43.10;;;21.13;;
11911;SDS011;6016;41.928;25.556;2023-03-16T14:27:21;73.97;;;35.65;;
11911;SDS011;6016;41.928;25.556;2023-03-16T14:29:53;91.32;;;43.30;;
11911;SDS011;6016;41.928;25.556;2023-03-16T14:32:28;38.40;;;20.38;;
11911;SDS011;6016;41.928;25.556;2023-03-16T14:35:01;23.80;;;12.38;;
11911;SDS011;6016;41.928;25.556;2023-03-16T14:37:37;20.70;;;11.40;;
11911;SDS011;6016;41.928;25.556;2023-03-16T14:40:07;33.35;;;19.60;;
11911;SDS011;6016;41.928;25.556;2023-03-16T14:42:47;29.00;;;18.65;;
11911;SDS011;6016;41.928;25.556;2023-03-16T14:45:14;11.68;;;6.65;;
11911;SDS011;6016;41.928;25.556;2023-03-16T14:47:43;20.27;;;14.30;;
11911;SDS011;6016;41.928;25.556;2023-03-16T14:50:12;20.30;;;13.13;;
11911;SDS011;6016;41.928;25.556;2023-03-16T14:52:42;16.83;;;7.88;;
11911;SDS011;6016;41.928;25.556;2023-03-16T14:55:12;36.15;;;15.30;;
11911;SDS011;6016;41.928;25.556;2023-03-16T14:57:41;17.45;;;9.73;;
11911;SDS011;6016;41.928;25.556;2023-03-16T15:00:10;12.23;;;7.25;;